LEBZ/BJZ METAR and TAF weather

Enter ICAO airport designator
Station Type Date Time Source
LEBZ METAR 2019/12/07 15:00 UTC NOAA

LEBZ 071500Z 36002KT CAVOK 16/09 Q1023


Station Type Date Time Source
LEBZ Decoded METAR 2019/12/07 15:00 UTC NOAA

Badajoz / Talavera La Real, Spain (LEBZ) 38-53N 006-49W 192M
Dec 07, 2019 - 10:00 AM EST / 2019.12.07 1500 UTC
Wind: from the N (360 degrees) at 2 MPH (2 KT):0
Visibility: greater than 7 mile(s):0
Temperature: 60 F (16 C)
Dew Point: 48 F (9 C)
Relative Humidity: 63%
Pressure (altimeter): 30.21 in. Hg (1023 hPa)
ob: LEBZ 071500Z 36002KT CAVOK 16/09 Q1023
cycle: 15

Station Type Date Time Source
LEBZ TAF 2019/12/07 12:27 UTC NOAA

TAF LEBZ 071100Z 0712/0812 32004KT CAVOK TX17/0715Z TN04/0806Z PROB40
TEMPO 0803/0810 3000 BR BKN008

Example: see airport list